createdAt,value
2019-02-23T00:02:29.093Z,16.60
2019-02-23T00:05:01.154Z,3.90
2019-02-23T00:07:32.281Z,7.37
2019-02-23T00:10:03.917Z,13.40
2019-02-23T00:12:35.083Z,10.70
2019-02-23T00:15:06.968Z,10.07
2019-02-23T00:17:37.989Z,18.37
2019-02-23T00:20:08.945Z,17.23
2019-02-23T00:22:40.001Z,8.47
2019-02-23T00:25:11.434Z,12.73
2019-02-23T00:27:42.387Z,12.30
2019-02-23T00:30:13.451Z,19.23
2019-02-23T00:32:44.565Z,9.70
2019-02-23T00:35:15.738Z,21.83
2019-02-23T00:37:46.793Z,10.10
2019-02-23T00:40:17.882Z,10.13
2019-02-23T00:42:48.967Z,13.90
2019-02-23T00:45:20.007Z,10.03
2019-02-23T00:47:51.032Z,15.50
2019-02-23T00:50:21.967Z,15.50
2019-02-23T00:52:53.009Z,14.33
2019-02-23T00:55:23.986Z,17.77
2019-02-23T00:57:54.935Z,11.93
2019-02-23T01:00:26.017Z,15.57
2019-02-23T01:02:57.143Z,8.30
2019-02-23T01:05:28.230Z,7.13
2019-02-23T01:07:59.339Z,8.17
2019-02-23T01:10:30.554Z,7.67
2019-02-23T01:13:01.722Z,23.37
2019-02-23T01:15:32.594Z,16.13
2019-02-23T01:18:04.385Z,13.63
2019-02-23T01:20:35.377Z,10.20
2019-02-23T01:23:07.791Z,11.07
2019-02-23T01:25:38.766Z,7.33
2019-02-23T01:28:09.813Z,14.27
2019-02-23T01:30:40.965Z,16.03
2019-02-23T01:33:12.024Z,14.30
2019-02-23T01:35:43.001Z,8.60
2019-02-23T01:38:14.093Z,7.97
2019-02-23T01:40:45.229Z,15.40
2019-02-23T01:43:16.422Z,11.00
2019-02-23T01:45:47.503Z,14.90
2019-02-23T01:48:18.556Z,11.70
2019-02-23T01:50:49.615Z,11.23
2019-02-23T01:53:20.838Z,12.57
2019-02-23T01:55:51.994Z,10.43
2019-02-23T01:58:23.220Z,14.30
2019-02-23T02:00:54.384Z,14.60
2019-02-23T02:03:25.576Z,16.67
2019-02-23T02:05:56.632Z,18.93
2019-02-23T02:08:27.750Z,9.47
2019-02-23T02:10:58.807Z,10.43
2019-02-23T02:13:29.761Z,14.37
2019-02-23T02:16:00.968Z,16.27
2019-02-23T02:18:32.580Z,17.40
2019-02-23T02:21:03.662Z,14.13
2019-02-23T02:23:34.614Z,9.77
2019-02-23T02:26:05.596Z,10.80
2019-02-23T02:28:36.648Z,8.37
2019-02-23T02:31:08.636Z,12.30
2019-02-23T02:34:11.519Z,19.97
2019-02-23T02:36:42.814Z,15.10
2019-02-23T02:39:14.394Z,17.83
2019-02-23T02:41:45.480Z,17.37
2019-02-23T02:44:16.433Z,15.50
2019-02-23T02:46:47.414Z,23.33
2019-02-23T02:49:19.758Z,12.53
2019-02-23T02:51:50.958Z,15.57
2019-02-23T02:54:22.155Z,18.37
2019-02-23T02:56:53.218Z,22.77
2019-02-23T02:59:24.274Z,19.73
2019-02-23T03:01:55.264Z,16.07
2019-02-23T03:04:26.294Z,19.87
2019-02-23T03:06:57.446Z,14.57
2019-02-23T03:09:28.603Z,18.30
2019-02-23T03:11:59.614Z,17.17
2019-02-23T03:14:30.567Z,20.47
2019-02-23T03:17:01.688Z,15.17
2019-02-23T03:19:33.086Z,17.73
2019-02-23T03:22:04.159Z,27.67
2019-02-23T03:24:36.185Z,15.43
2019-02-23T03:27:07.228Z,22.67
2019-02-23T03:29:38.189Z,18.80
2019-02-23T03:32:09.165Z,17.87
2019-02-23T03:34:40.293Z,19.93
2019-02-23T03:37:11.340Z,13.10
2019-02-23T03:39:42.390Z,21.53
2019-02-23T03:42:13.476Z,23.47
2019-02-23T03:44:44.435Z,16.80
2019-02-23T03:47:15.594Z,21.20
2019-02-23T03:49:46.553Z,18.33
2019-02-23T03:52:17.716Z,22.80
2019-02-23T03:54:48.700Z,20.00
2019-02-23T03:57:19.847Z,29.10
2019-02-23T03:59:50.875Z,22.10
2019-02-23T04:02:21.879Z,26.03
2019-02-23T04:04:52.867Z,25.30
2019-02-23T04:07:23.864Z,22.93
2019-02-23T04:09:54.888Z,28.43
2019-02-23T04:12:26.058Z,27.03
2019-02-23T04:14:57.194Z,25.57
2019-02-23T04:17:28.227Z,14.63
2019-02-23T04:20:00.138Z,28.23
2019-02-23T04:22:31.528Z,27.53
2019-02-23T04:25:02.590Z,28.80
2019-02-23T04:27:33.577Z,24.30
2019-02-23T04:30:06.478Z,24.73
2019-02-23T04:32:37.550Z,24.73
2019-02-23T04:35:09.900Z,25.80
2019-02-23T04:37:42.034Z,28.67
2019-02-23T04:40:13.086Z,26.17
2019-02-23T04:42:44.312Z,27.80
2019-02-23T04:45:15.318Z,31.00
2019-02-23T04:47:46.370Z,33.03
2019-02-23T04:50:17.343Z,33.10
2019-02-23T04:52:48.386Z,29.33
2019-02-23T04:55:19.477Z,27.67
2019-02-23T04:57:50.561Z,33.97
2019-02-23T05:00:21.634Z,30.77
2019-02-23T05:02:52.699Z,31.83
2019-02-23T05:05:23.757Z,31.37
2019-02-23T05:07:54.839Z,38.17
2019-02-23T05:10:25.870Z,42.00
2019-02-23T05:12:57.282Z,41.47
2019-02-23T05:15:28.447Z,37.50
2019-02-23T05:18:00.838Z,32.97
2019-02-23T05:20:32.736Z,42.93
2019-02-23T05:23:03.825Z,35.87
2019-02-23T05:25:34.780Z,57.40
2019-02-23T05:28:05.761Z,51.73
2019-02-23T05:30:36.897Z,47.50
2019-02-23T05:33:07.957Z,42.20
2019-02-23T05:35:39.088Z,68.83
2019-02-23T05:38:10.223Z,51.73
2019-02-23T05:40:41.260Z,74.57
2019-02-23T05:43:12.350Z,108.53
2019-02-23T05:45:43.387Z,102.83
2019-02-23T05:48:16.019Z,80.33
2019-02-23T05:50:46.971Z,74.43
2019-02-23T05:53:18.070Z,58.23
2019-02-23T05:55:49.037Z,31.87
2019-02-23T05:58:19.921Z,35.53
2019-02-23T06:00:50.949Z,44.37
2019-02-23T06:03:22.042Z,111.53
2019-02-23T06:05:53.103Z,49.00
2019-02-23T06:08:24.225Z,35.83
2019-02-23T06:10:55.197Z,70.53
2019-02-23T06:13:27.586Z,49.30
2019-02-23T06:15:58.659Z,54.73
2019-02-23T06:18:29.720Z,44.07
2019-02-23T06:21:02.077Z,57.67
2019-02-23T06:23:33.397Z,65.23
2019-02-23T06:26:04.473Z,72.83
2019-02-23T06:28:35.633Z,48.60
2019-02-23T06:31:06.737Z,63.00
2019-02-23T06:33:50.690Z,49.20
2019-02-23T06:36:22.613Z,57.53
2019-02-23T06:38:53.710Z,55.40
2019-02-23T06:41:24.748Z,41.97
2019-02-23T06:43:56.703Z,43.33
2019-02-23T06:46:27.743Z,39.00
2019-02-23T06:48:58.977Z,51.43
2019-02-23T06:51:30.102Z,62.17
2019-02-23T06:54:01.237Z,109.93
2019-02-23T06:56:32.434Z,63.63
2019-02-23T06:59:03.458Z,43.67
2019-02-23T07:01:34.356Z,21.20
2019-02-23T07:04:05.475Z,41.33
2019-02-23T07:06:36.525Z,30.43
2019-02-23T07:09:08.154Z,28.07
2019-02-23T07:11:39.294Z,35.97
2019-02-23T07:14:10.343Z,23.73
2019-02-23T07:16:41.307Z,42.40
2019-02-23T07:19:13.694Z,41.83
2019-02-23T07:21:45.159Z,26.20
2019-02-23T07:24:17.687Z,24.10
2019-02-23T07:26:48.655Z,25.67
2019-02-23T07:29:19.698Z,19.93
2019-02-23T07:31:50.798Z,29.33
2019-02-23T07:34:21.794Z,29.67
2019-02-23T07:36:52.823Z,23.63
2019-02-23T07:39:23.876Z,24.27
2019-02-23T07:41:54.977Z,23.87
2019-02-23T07:44:26.239Z,14.77
2019-02-23T07:46:57.286Z,19.37
2019-02-23T07:49:28.356Z,28.80
2019-02-23T07:51:59.409Z,76.80
2019-02-23T07:54:31.962Z,122.70
2019-02-23T07:57:02.842Z,116.80
2019-02-23T07:59:34.132Z,38.60
2019-02-23T08:02:05.154Z,63.37
2019-02-23T08:04:36.150Z,116.13
2019-02-23T08:07:07.232Z,174.97
2019-02-23T08:09:38.225Z,70.83
2019-02-23T08:12:09.192Z,36.10
2019-02-23T08:14:41.249Z,24.40
2019-02-23T08:17:12.319Z,93.00
2019-02-23T08:19:44.342Z,34.53
2019-02-23T08:22:17.233Z,20.63
2019-02-23T08:24:48.322Z,45.83
2019-02-23T08:27:19.359Z,56.93
2019-02-23T08:29:50.349Z,23.60
2019-02-23T08:32:21.415Z,13.70
2019-02-23T08:34:52.548Z,50.20
2019-02-23T08:37:23.502Z,24.80
2019-02-23T08:39:54.605Z,879.47
2019-02-23T08:42:25.673Z,80.30
2019-02-23T08:44:56.656Z,55.00
2019-02-23T08:47:27.653Z,112.17
2019-02-23T08:49:58.662Z,24.33
2019-02-23T08:52:30.824Z,71.73
2019-02-23T08:55:02.034Z,14.97
2019-02-23T08:57:34.166Z,39.50
2019-02-23T09:00:11.254Z,27.27
2019-02-23T09:02:43.174Z,17.10
2019-02-23T09:05:14.605Z,12.30
2019-02-23T09:07:46.631Z,15.07
2019-02-23T09:10:17.874Z,19.27
2019-02-23T09:12:48.935Z,39.53
2019-02-23T09:15:22.173Z,39.07
2019-02-23T09:17:52.671Z,40.93
2019-02-23T09:20:29.129Z,77.37
2019-02-23T09:23:00.106Z,285.80
2019-02-23T09:25:29.884Z,49.73
2019-02-23T09:28:00.945Z,44.17
2019-02-23T09:30:31.942Z,44.37
2019-02-23T09:33:03.165Z,33.63
2019-02-23T09:35:34.329Z,240.40
2019-02-23T09:38:05.533Z,134.67
2019-02-23T09:40:36.599Z,16.83
2019-02-23T09:43:07.555Z,40.73
2019-02-23T09:45:38.653Z,30.20
2019-02-23T09:48:09.610Z,37.30
2019-02-23T09:50:40.706Z,31.63
2019-02-23T09:53:11.837Z,29.37
2019-02-23T09:55:42.931Z,35.03
2019-02-23T09:58:13.976Z,121.40
2019-02-23T10:00:45.042Z,34.10
2019-02-23T10:03:16.105Z,31.07
2019-02-23T10:05:47.198Z,31.37
2019-02-23T10:08:18.645Z,25.33
2019-02-23T10:10:49.630Z,15.20
2019-02-23T10:13:20.682Z,18.23
2019-02-23T10:15:51.758Z,16.50
2019-02-23T10:18:22.718Z,48.50
2019-02-23T10:20:53.771Z,21.60
2019-02-23T10:23:25.550Z,29.07
2019-02-23T10:25:56.545Z,16.97
2019-02-23T10:28:27.600Z,13.83
2019-02-23T10:31:00.048Z,9.85
2019-02-23T10:33:31.097Z,14.47
2019-02-23T10:36:02.136Z,12.90
2019-02-23T10:38:34.094Z,33.73
2019-02-23T10:41:05.319Z,40.20
2019-02-23T10:43:36.371Z,7.87
2019-02-23T10:46:07.517Z,10.47
2019-02-23T10:48:38.570Z,15.47
2019-02-23T10:51:09.622Z,10.43
2019-02-23T10:53:40.860Z,26.47
2019-02-23T10:56:11.849Z,34.50
2019-02-23T10:58:42.875Z,34.90
2019-02-23T11:01:13.938Z,24.57
2019-02-23T11:03:45.061Z,16.48
2019-02-23T11:06:16.122Z,21.17
2019-02-23T11:08:48.284Z,8.95
2019-02-23T11:11:19.322Z,17.82
2019-02-23T11:13:50.279Z,16.13
2019-02-23T11:16:21.362Z,63.43
2019-02-23T11:18:53.391Z,15.23
2019-02-23T11:21:24.540Z,13.93
2019-02-23T11:23:56.490Z,12.98
2019-02-23T11:26:27.646Z,9.88
2019-02-23T11:28:58.735Z,9.27
2019-02-23T11:31:29.786Z,16.73
2019-02-23T11:34:00.809Z,15.10
2019-02-23T11:36:31.975Z,13.40
2019-02-23T11:39:03.098Z,13.25
2019-02-23T11:41:35.676Z,16.47
2019-02-23T11:44:06.633Z,12.80
2019-02-23T11:46:37.627Z,12.98
2019-02-23T11:49:08.623Z,24.03
2019-02-23T11:51:39.617Z,12.03
2019-02-23T11:54:10.719Z,12.65
2019-02-23T11:56:41.741Z,13.03
2019-02-23T11:59:12.696Z,18.55
2019-02-23T12:01:43.849Z,11.00
2019-02-23T12:04:14.899Z,12.37
2019-02-23T12:06:45.982Z,11.90
2019-02-23T12:09:17.008Z,14.83
2019-02-23T12:11:47.997Z,20.25
2019-02-23T12:14:19.049Z,13.22
2019-02-23T12:16:50.142Z,12.60
2019-02-23T12:19:21.372Z,16.05
2019-02-23T12:21:52.455Z,19.80
2019-02-23T12:24:23.461Z,21.85
2019-02-23T12:26:54.455Z,17.60
2019-02-23T12:29:26.585Z,14.55
2019-02-23T12:31:57.673Z,12.85
2019-02-23T12:34:28.806Z,18.33
2019-02-23T12:36:59.907Z,7.23
2019-02-23T12:39:31.031Z,13.88
2019-02-23T12:42:02.104Z,20.53
2019-02-23T12:44:33.051Z,15.32
2019-02-23T12:47:04.237Z,13.78
2019-02-23T12:49:35.195Z,49.95
2019-02-23T12:52:06.957Z,17.53
2019-02-23T12:54:37.883Z,17.27
2019-02-23T12:57:08.926Z,16.00
2019-02-23T12:59:39.952Z,14.85
2019-02-23T13:02:11.047Z,16.67
2019-02-23T13:04:42.078Z,26.15
2019-02-23T13:07:13.157Z,25.52
2019-02-23T13:09:45.354Z,22.22
2019-02-23T13:12:25.063Z,31.52
2019-02-23T13:15:01.783Z,18.30
2019-02-23T13:18:04.507Z,16.65
2019-02-23T13:20:53.621Z,20.40
2019-02-23T13:23:41.039Z,17.07
2019-02-23T13:26:39.638Z,15.70
2019-02-23T13:29:38.149Z,15.98
2019-02-23T13:32:31.667Z,13.13
2019-02-23T13:35:23.769Z,15.18
2019-02-23T13:38:01.607Z,15.85
2019-02-23T13:40:37.033Z,19.07
2019-02-23T13:43:27.915Z,19.37
2019-02-23T13:46:18.679Z,66.65
2019-02-23T13:49:04.750Z,182.88
2019-02-23T13:51:44.662Z,19.10
2019-02-23T13:54:38.334Z,21.43
2019-02-23T13:57:09.322Z,23.22
2019-02-23T14:00:04.610Z,108.37
2019-02-23T14:03:06.927Z,15.93
2019-02-23T14:05:46.963Z,395.05
2019-02-23T14:08:35.783Z,68.77
2019-02-23T14:11:27.328Z,43.48
2019-02-23T14:14:07.408Z,25.00
2019-02-23T14:16:41.749Z,88.10
2019-02-23T14:19:38.291Z,29.20
2019-02-23T14:22:30.526Z,16.10
2019-02-23T14:25:19.732Z,16.90
2019-02-23T14:28:21.964Z,24.60
2019-02-23T14:31:07.758Z,161.70
2019-02-23T14:33:47.376Z,72.08
2019-02-23T14:36:33.558Z,48.52
2019-02-23T14:39:33.434Z,53.28
2019-02-23T14:42:10.254Z,45.17
2019-02-23T14:45:17.548Z,20.57
2019-02-23T14:48:12.650Z,20.88
2019-02-23T14:51:18.809Z,19.87
2019-02-23T14:53:58.720Z,43.50
2019-02-23T14:56:58.729Z,21.62
2019-02-23T14:59:52.395Z,28.77
2019-02-23T15:02:44.515Z,23.75
2019-02-23T15:05:24.451Z,40.75
2019-02-23T15:08:13.519Z,17.70
2019-02-23T15:11:13.142Z,20.45
2019-02-23T15:14:02.445Z,28.10
2019-02-23T15:16:39.321Z,29.80
2019-02-23T15:19:34.485Z,49.30
2019-02-23T15:22:29.301Z,32.42
2019-02-23T15:25:21.327Z,34.43
2019-02-23T15:28:05.237Z,36.53
2019-02-23T15:30:39.286Z,33.85
2019-02-23T15:33:16.226Z,29.98
2019-02-23T15:36:02.217Z,23.52
2019-02-23T15:39:00.476Z,23.40
2019-02-23T15:41:49.459Z,39.42
2019-02-23T15:44:29.202Z,27.60
2019-02-23T15:47:24.456Z,36.10
2019-02-23T15:49:55.976Z,29.25
2019-02-23T15:52:27.141Z,12.82
2019-02-23T15:54:58.086Z,17.40
2019-02-23T15:57:29.043Z,25.37
2019-02-23T16:00:00.391Z,22.32
2019-02-23T16:02:31.755Z,31.37
2019-02-23T16:05:02.917Z,32.42
2019-02-23T16:07:35.038Z,35.93
2019-02-23T16:10:06.469Z,57.15
2019-02-23T16:12:38.815Z,20.92
2019-02-23T16:15:09.933Z,19.40
2019-02-23T16:17:40.884Z,28.50
2019-02-23T16:20:13.326Z,30.60
2019-02-23T16:22:44.279Z,20.47
2019-02-23T16:25:15.263Z,20.20
2019-02-23T16:27:46.218Z,25.70
2019-02-23T16:30:18.108Z,29.63
2019-02-23T16:32:49.067Z,42.23
2019-02-23T16:35:22.414Z,37.25
2019-02-23T16:37:54.383Z,39.93
2019-02-23T16:40:25.486Z,28.13
2019-02-23T16:42:56.546Z,20.55
2019-02-23T16:45:27.564Z,33.33
2019-02-23T16:47:58.625Z,25.23
2019-02-23T16:50:29.627Z,31.45
2019-02-23T16:53:01.763Z,35.00
2019-02-23T16:55:32.832Z,33.18
2019-02-23T16:58:03.964Z,25.70
2019-02-23T17:00:34.943Z,30.25
2019-02-23T17:03:06.029Z,28.15
2019-02-23T17:05:37.170Z,34.90
2019-02-23T17:08:08.131Z,44.63
2019-02-23T17:10:39.131Z,59.17
2019-02-23T17:13:10.165Z,41.23
2019-02-23T17:15:41.293Z,35.10
2019-02-23T17:18:12.357Z,37.20
2019-02-23T17:20:43.354Z,25.97
2019-02-23T17:23:14.215Z,18.03
2019-02-23T17:25:45.298Z,24.75
2019-02-23T17:28:16.296Z,49.20
2019-02-23T17:30:48.454Z,59.58
2019-02-23T17:33:19.384Z,76.60
2019-02-23T17:35:50.465Z,82.42
2019-02-23T17:38:21.429Z,81.63
2019-02-23T17:40:53.690Z,77.40
2019-02-23T17:43:25.731Z,48.40
2019-02-23T17:45:56.896Z,45.92
2019-02-23T17:48:27.858Z,47.70
2019-02-23T17:50:59.198Z,69.73
2019-02-23T17:53:30.158Z,71.25
2019-02-23T17:56:01.151Z,72.00
2019-02-23T17:58:32.116Z,78.72
2019-02-23T18:01:03.269Z,79.32
2019-02-23T18:03:34.329Z,84.13
2019-02-23T18:06:05.569Z,114.67
2019-02-23T18:08:36.714Z,114.97
2019-02-23T18:11:07.726Z,114.10
2019-02-23T18:13:38.786Z,114.80
2019-02-23T18:16:09.855Z,208.72
2019-02-23T18:18:41.002Z,173.07
2019-02-23T18:21:13.378Z,104.90
2019-02-23T18:23:44.447Z,191.85
2019-02-23T18:26:20.997Z,141.40
2019-02-23T18:28:48.238Z,98.70
2019-02-23T18:31:20.001Z,84.57
2019-02-23T18:33:52.283Z,77.70
2019-02-23T18:36:23.346Z,72.57
2019-02-23T18:38:54.428Z,70.23
2019-02-23T18:41:25.578Z,73.70
2019-02-23T18:43:56.678Z,67.43
2019-02-23T18:46:27.770Z,58.87
2019-02-23T18:48:59.904Z,66.83
2019-02-23T18:51:31.134Z,61.07
2019-02-23T18:54:02.269Z,71.33
2019-02-23T18:56:33.270Z,68.20
2019-02-23T18:59:04.473Z,78.03
2019-02-23T19:01:35.568Z,78.97
2019-02-23T19:04:06.605Z,69.13
2019-02-23T19:06:37.701Z,73.90
2019-02-23T19:09:08.801Z,67.30
2019-02-23T19:11:41.405Z,76.47
2019-02-23T19:14:13.838Z,83.70
2019-02-23T19:16:44.900Z,86.93
2019-02-23T19:19:15.936Z,88.95
2019-02-23T19:21:47.052Z,89.50
2019-02-23T19:24:18.230Z,94.90
2019-02-23T19:26:49.317Z,90.50
2019-02-23T19:29:20.283Z,89.62
2019-02-23T19:31:52.635Z,94.53
2019-02-23T19:34:23.774Z,92.00
2019-02-23T19:36:54.943Z,87.20
2019-02-23T19:39:25.909Z,105.07
2019-02-23T19:41:56.903Z,103.80
2019-02-23T19:44:27.869Z,99.00
2019-02-23T19:46:59.032Z,102.43
2019-02-23T19:49:30.174Z,109.60
2019-02-23T19:52:01.327Z,111.23
2019-02-23T19:54:32.613Z,125.87
2019-02-23T19:57:03.622Z,348.57
2019-02-23T19:59:34.737Z,253.50
2019-02-23T20:02:06.763Z,213.77
2019-02-23T20:04:37.998Z,308.03
2019-02-23T20:07:10.397Z,334.32
2019-02-23T20:09:41.385Z,478.03
2019-02-23T20:12:13.451Z,512.93
2019-02-23T20:14:44.642Z,464.03
2019-02-23T20:17:15.786Z,455.37
2019-02-23T20:19:46.951Z,329.00
2019-02-23T20:22:18.028Z,306.80
2019-02-23T20:24:49.204Z,277.97
2019-02-23T20:27:20.422Z,278.90
2019-02-23T20:29:51.490Z,277.53
2019-02-23T20:32:23.810Z,292.97
2019-02-23T20:34:55.260Z,301.37
2019-02-23T20:37:26.510Z,248.87
2019-02-23T20:39:57.909Z,253.50
2019-02-23T20:42:29.281Z,294.20
2019-02-23T20:45:00.322Z,320.97
2019-02-23T20:47:31.616Z,303.37
2019-02-23T20:50:04.778Z,310.73
2019-02-23T20:52:37.393Z,300.95
2019-02-23T20:55:09.378Z,299.30
2019-02-23T20:57:42.175Z,337.80
2019-02-23T21:00:13.508Z,303.60
2019-02-23T21:02:46.296Z,293.43
2019-02-23T21:05:17.731Z,322.40
2019-02-23T21:07:48.808Z,294.63
2019-02-23T21:10:20.160Z,291.70
2019-02-23T21:12:51.342Z,274.80
2019-02-23T21:15:22.507Z,264.15
2019-02-23T21:17:53.982Z,259.60
2019-02-23T21:20:25.043Z,291.00
2019-02-23T21:22:56.169Z,284.75
2019-02-23T21:25:27.164Z,291.77
2019-02-23T21:27:58.409Z,301.37
2019-02-23T21:30:30.618Z,312.20
2019-02-23T21:33:02.598Z,291.07
2019-02-23T21:35:33.733Z,300.77
2019-02-23T21:38:06.486Z,310.63
2019-02-23T21:40:38.387Z,323.40
2019-02-23T21:43:10.459Z,424.97
2019-02-23T21:45:42.310Z,572.07
2019-02-23T21:48:13.727Z,539.10
2019-02-23T21:50:44.904Z,431.83
2019-02-23T21:53:16.230Z,303.27
2019-02-23T21:55:47.614Z,297.17
2019-02-23T21:58:18.906Z,243.10
2019-02-23T22:00:50.523Z,291.40
2019-02-23T22:03:22.149Z,343.57
2019-02-23T22:05:53.752Z,403.57
2019-02-23T22:08:25.374Z,459.77
2019-02-23T22:10:56.600Z,437.40
2019-02-23T22:13:29.873Z,453.10
2019-02-23T22:16:01.034Z,396.10
2019-02-23T22:18:33.111Z,422.37
2019-02-23T22:21:05.053Z,436.10
2019-02-23T22:23:36.198Z,438.93
2019-02-23T22:26:07.551Z,473.00
2019-02-23T22:28:38.830Z,454.53
2019-02-23T22:31:10.341Z,447.70
2019-02-23T22:33:42.461Z,457.77
2019-02-23T22:36:13.620Z,444.43
2019-02-23T22:38:45.032Z,436.80
2019-02-23T22:41:16.089Z,401.30
2019-02-23T22:43:47.209Z,399.20
2019-02-23T22:46:18.500Z,383.13
2019-02-23T22:48:50.973Z,404.83
2019-02-23T22:51:22.441Z,387.47
2019-02-23T22:53:53.782Z,380.20
2019-02-23T22:56:24.901Z,395.53
2019-02-23T22:58:56.177Z,408.90
2019-02-23T23:01:27.686Z,419.67
2019-02-23T23:03:59.835Z,443.73
2019-02-23T23:06:31.062Z,450.90
2019-02-23T23:09:02.254Z,445.90
2019-02-23T23:11:35.102Z,456.00
2019-02-23T23:14:06.217Z,469.97
2019-02-23T23:16:37.273Z,348.50
2019-02-23T23:19:08.456Z,331.93
2019-02-23T23:21:39.603Z,283.63
2019-02-23T23:24:10.616Z,246.23
2019-02-23T23:26:41.774Z,246.47
2019-02-23T23:29:12.883Z,278.40
2019-02-23T23:31:44.037Z,300.03
2019-02-23T23:34:15.897Z,262.97
2019-02-23T23:36:47.054Z,256.35
2019-02-23T23:39:18.118Z,280.20
2019-02-23T23:41:48.993Z,287.97
2019-02-23T23:44:19.904Z,296.90
2019-02-23T23:46:50.887Z,315.40
2019-02-23T23:49:21.935Z,348.13
2019-02-23T23:51:52.994Z,333.40
2019-02-23T23:54:24.170Z,318.57
2019-02-23T23:56:55.209Z,304.30
2019-02-23T23:59:26.214Z,309.03
